Time;durP1;ratioP1;P1;durP2;ratioP2;P2;SDS_P1;SDS_P2;PMS_P1;PMS_P2;Temp;Humidity;BMP_temperature;BMP_pressure;BME280_temperature;BME280_humidity;BME280_pressure;Samples;Min_cycle;Max_cycle;Signal;HPM_P1;HPM_P2
2023/04/25 00:00:28;;;;;;;18.07;7.13;;;;;;;;;;5036868;28;20186;-68
2023/04/25 00:02:56;;;;;;;12.53;6.47;;;;;;;;;;5018916;28;20269;-69
2023/04/25 00:05:22;;;;;;;16.17;7.67;;;;;;;;;;5036707;28;20220;-73
2023/04/25 00:07:49;;;;;;;16.20;7.67;;;;;;;;;;5018763;28;20183;-68
2023/04/25 00:10:15;;;;;;;15.90;6.83;;;;;;;;;;5018592;28;20214;-69
2023/04/25 00:12:41;;;;;;;16.53;7.43;;;;;;;;;;5036417;28;20175;-69
2023/04/25 00:15:08;;;;;;;16.53;7.53;;;;;;;;;;5018658;28;20321;-69
2023/04/25 00:17:34;;;;;;;15.63;7.23;;;;;;;;;;5018546;28;20181;-69
2023/04/25 00:20:00;;;;;;;20.63;7.40;;;;;;;;;;5018397;28;20207;-71
2023/04/25 00:22:26;;;;;;;18.70;7.40;;;;;;;;;;5018361;28;20219;-69
2023/04/25 00:24:53;;;;;;;18.37;7.30;;;;;;;;;;5018384;28;20249;-69
2023/04/25 00:27:19;;;;;;;17.23;7.93;;;;;;;;;;5036200;28;20175;-68
2023/04/25 00:29:45;;;;;;;17.27;7.77;;;;;;;;;;5035884;28;20310;-70
2023/04/25 00:32:11;;;;;;;21.53;7.87;;;;;;;;;;5036176;28;20179;-69
2023/04/25 00:34:37;;;;;;;17.60;7.63;;;;;;;;;;5018244;28;20233;-69
2023/04/25 00:37:03;;;;;;;23.07;8.53;;;;;;;;;;5035893;28;20266;-69
2023/04/25 00:39:29;;;;;;;16.47;8.40;;;;;;;;;;5035903;28;20218;-69
2023/04/25 00:41:55;;;;;;;14.70;7.43;;;;;;;;;;5035776;28;20190;-70
2023/04/25 00:44:21;;;;;;;15.50;7.50;;;;;;;;;;5036117;28;20175;-70
2023/04/25 00:46:49;;;;;;;20.03;8.70;;;;;;;;;;5018109;28;20191;-69
2023/04/25 00:49:16;;;;;;;17.00;7.67;;;;;;;;;;5035576;28;20570;-69
2023/04/25 00:51:43;;;;;;;15.93;7.77;;;;;;;;;;5035827;28;20203;-69
2023/04/25 00:54:10;;;;;;;13.60;7.97;;;;;;;;;;5036172;28;20225;-69
2023/04/25 00:56:36;;;;;;;18.53;8.03;;;;;;;;;;5035619;28;20171;-69
2023/04/25 00:59:02;;;;;;;21.80;9.00;;;;;;;;;;5035977;28;20712;-69
2023/04/25 01:01:28;;;;;;;17.90;8.00;;;;;;;;;;5034007;28;20547;-70
2023/04/25 01:03:54;;;;;;;20.93;8.00;;;;;;;;;;5035529;28;20168;-68
2023/04/25 01:06:22;;;;;;;14.93;7.30;;;;;;;;;;5017462;28;20525;-69
2023/04/25 01:08:48;;;;;;;22.37;8.50;;;;;;;;;;5017819;28;20198;-69
2023/04/25 01:11:14;;;;;;;16.17;7.70;;;;;;;;;;5035889;28;20207;-69
2023/04/25 01:13:40;;;;;;;10.17;7.00;;;;;;;;;;5017296;28;20273;-68
2023/04/25 01:16:06;;;;;;;16.13;6.90;;;;;;;;;;5017323;28;20616;-69
2023/04/25 01:18:32;;;;;;;19.27;7.60;;;;;;;;;;5017227;28;20195;-69
2023/04/25 01:21:05;;;;;;;12.57;7.17;;;;;;;;;;5017221;28;20183;-69
2023/04/25 01:23:33;;;;;;;12.07;7.37;;;;;;;;;;5035122;28;20290;-69
2023/04/25 01:25:59;;;;;;;13.57;7.20;;;;;;;;;;5017297;28;20187;-69
2023/04/25 01:28:25;;;;;;;12.77;7.47;;;;;;;;;;5035185;28;20210;-69
2023/04/25 01:30:52;;;;;;;15.63;7.87;;;;;;;;;;5017054;28;20227;-69
2023/04/25 01:33:18;;;;;;;14.87;7.57;;;;;;;;;;5035415;28;20179;-68
2023/04/25 01:35:44;;;;;;;19.60;7.50;;;;;;;;;;5016993;28;20229;-69
2023/04/25 01:38:10;;;;;;;12.30;7.50;;;;;;;;;;5016817;28;20190;-69
2023/04/25 01:40:39;;;;;;;16.97;6.97;;;;;;;;;;5016815;28;20194;-69
2023/04/25 01:43:05;;;;;;;15.70;7.40;;;;;;;;;;5016792;28;20205;-69
2023/04/25 01:45:31;;;;;;;15.27;7.20;;;;;;;;;;5034710;28;20556;-69
2023/04/25 01:47:59;;;;;;;14.23;7.20;;;;;;;;;;5034404;28;20187;-69
2023/04/25 01:50:25;;;;;;;13.40;7.97;;;;;;;;;;5016469;28;20207;-69
2023/04/25 01:52:51;;;;;;;12.93;7.10;;;;;;;;;;5034352;28;20229;-69
2023/04/25 01:55:17;;;;;;;14.97;7.07;;;;;;;;;;5016657;28;20190;-69
2023/04/25 01:57:43;;;;;;;17.67;7.60;;;;;;;;;;5034798;28;20516;-68
2023/04/25 02:00:10;;;;;;;14.97;8.03;;;;;;;;;;5034196;28;20673;-69
2023/04/25 02:02:36;;;;;;;11.67;6.60;;;;;;;;;;5016421;28;20262;-69
2023/04/25 02:05:01;;;;;;;15.27;7.80;;;;;;;;;;5034266;28;20182;-69
2023/04/25 02:07:27;;;;;;;14.80;6.70;;;;;;;;;;5034126;28;20187;-69
2023/04/25 02:09:53;;;;;;;16.03;7.33;;;;;;;;;;5016238;28;20207;-69
2023/04/25 02:12:19;;;;;;;13.60;6.77;;;;;;;;;;5016003;28;20179;-68
2023/04/25 02:14:45;;;;;;;15.73;7.13;;;;;;;;;;5016214;28;20186;-69
2023/04/25 02:17:12;;;;;;;12.93;7.27;;;;;;;;;;5034125;28;20595;-69
2023/04/25 02:19:38;;;;;;;14.57;7.73;;;;;;;;;;5016051;28;20199;-69
2023/04/25 02:22:04;;;;;;;20.80;7.50;;;;;;;;;;5033902;28;20214;-69
2023/04/25 02:24:31;;;;;;;13.00;6.90;;;;;;;;;;5033855;28;20214;-69
2023/04/25 02:26:57;;;;;;;13.13;7.20;;;;;;;;;;5033836;28;20233;-69
2023/04/25 02:29:23;;;;;;;18.40;8.07;;;;;;;;;;5034007;28;20211;-69
2023/04/25 02:31:49;;;;;;;15.37;6.97;;;;;;;;;;5015998;28;20175;-69
2023/04/25 02:34:15;;;;;;;16.10;7.03;;;;;;;;;;5016097;28;20175;-70
2023/04/25 02:36:41;;;;;;;14.70;6.97;;;;;;;;;;5033981;28;20225;-69
2023/04/25 02:39:07;;;;;;;13.60;6.40;;;;;;;;;;5016083;28;20225;-69
2023/04/25 02:41:33;;;;;;;15.43;7.23;;;;;;;;;;5016192;28;20182;-69
2023/04/25 02:43:59;;;;;;;16.17;6.70;;;;;;;;;;5016857;28;20270;-69
2023/04/25 02:46:25;;;;;;;16.97;7.13;;;;;;;;;;5034235;28;20174;-69
2023/04/25 02:48:51;;;;;;;12.57;6.50;;;;;;;;;;5015875;28;20221;-69
2023/04/25 02:51:17;;;;;;;14.67;6.57;;;;;;;;;;5015891;28;20202;-69
2023/04/25 02:53:43;;;;;;;22.17;7.13;;;;;;;;;;5033738;28;20178;-69
2023/04/25 02:56:09;;;;;;;16.87;7.07;;;;;;;;;;5033764;28;20190;-69
2023/04/25 02:58:35;;;;;;;16.47;6.77;;;;;;;;;;5033470;28;20223;-69
2023/04/25 03:01:01;;;;;;;15.83;7.77;;;;;;;;;;5015658;28;20182;-69
2023/04/25 03:03:27;;;;;;;19.47;7.43;;;;;;;;;;5015749;28;20183;-69
2023/04/25 03:05:53;;;;;;;13.83;6.10;;;;;;;;;;5015704;28;20186;-69
2023/04/25 03:08:19;;;;;;;18.50;7.50;;;;;;;;;;5015601;28;20242;-69
2023/04/25 03:10:46;;;;;;;19.37;6.93;;;;;;;;;;5033390;28;20227;-69
2023/04/25 03:13:12;;;;;;;17.20;6.97;;;;;;;;;;5015338;28;20175;-69
2023/04/25 03:15:39;;;;;;;14.67;6.50;;;;;;;;;;5033015;28;20245;-70
2023/04/25 03:18:05;;;;;;;16.30;6.97;;;;;;;;;;5032919;28;20171;-69
2023/04/25 03:20:31;;;;;;;18.80;7.60;;;;;;;;;;5032947;28;20175;-68
2023/04/25 03:22:57;;;;;;;18.50;7.23;;;;;;;;;;5033004;28;20180;-69
2023/04/25 03:25:23;;;;;;;23.00;7.93;;;;;;;;;;5018131;28;20221;-70
2023/04/25 03:27:49;;;;;;;17.70;6.80;;;;;;;;;;5037157;28;20185;-69
2023/04/25 03:30:15;;;;;;;20.07;7.43;;;;;;;;;;5036834;28;20234;-69
2023/04/25 03:32:41;;;;;;;21.90;7.97;;;;;;;;;;5019377;28;20557;-69
2023/04/25 03:35:07;;;;;;;19.17;7.37;;;;;;;;;;5037060;28;20211;-68
2023/04/25 03:37:33;;;;;;;18.17;7.27;;;;;;;;;;5037319;28;20193;-69
2023/04/25 03:39:59;;;;;;;19.10;7.53;;;;;;;;;;5036712;28;20744;-69
2023/04/25 03:42:25;;;;;;;16.13;7.10;;;;;;;;;;5019363;28;20569;-69
2023/04/25 03:44:52;;;;;;;23.20;7.83;;;;;;;;;;5019086;28;20183;-69
2023/04/25 03:47:18;;;;;;;22.97;7.50;;;;;;;;;;5036922;28;20729;-68
2023/04/25 03:49:44;;;;;;;23.47;8.20;;;;;;;;;;5036634;28;20207;-69
2023/04/25 03:52:10;;;;;;;20.70;7.10;;;;;;;;;;5036701;28;20245;-69
2023/04/25 03:54:36;;;;;;;21.30;7.63;;;;;;;;;;5018920;28;20186;-68
2023/04/25 03:57:02;;;;;;;22.27;7.47;;;;;;;;;;5036564;28;20179;-68
2023/04/25 03:59:28;;;;;;;21.97;7.93;;;;;;;;;;5037262;28;20202;-69
2023/04/25 04:01:55;;;;;;;19.60;8.53;;;;;;;;;;5018906;28;20210;-68
2023/04/25 04:04:20;;;;;;;18.37;7.50;;;;;;;;;;5036806;28;20183;-69
2023/04/25 04:06:46;;;;;;;18.70;8.07;;;;;;;;;;5018606;28;20691;-68
2023/04/25 04:09:12;;;;;;;20.00;7.30;;;;;;;;;;5036395;28;20244;-68
2023/04/25 04:11:39;;;;;;;17.87;7.20;;;;;;;;;;5018678;28;20640;-68
2023/04/25 04:14:08;;;;;;;25.83;7.50;;;;;;;;;;5036653;28;20171;-69
2023/04/25 04:16:34;;;;;;;21.40;8.47;;;;;;;;;;5036328;28;20258;-69
2023/04/25 04:19:00;;;;;;;26.07;7.90;;;;;;;;;;5036350;28;20654;-69
2023/04/25 04:21:26;;;;;;;17.13;7.50;;;;;;;;;;5018333;28;20183;-69
2023/04/25 04:23:54;;;;;;;19.17;8.03;;;;;;;;;;5036499;28;20187;-68
2023/04/25 04:26:23;;;;;;;27.60;8.83;;;;;;;;;;5018673;28;20274;-68
2023/04/25 04:28:50;;;;;;;22.33;8.60;;;;;;;;;;5036186;28;20203;-68
2023/04/25 04:31:18;;;;;;;16.80;8.10;;;;;;;;;;5018399;28;20206;-68
2023/04/25 04:33:44;;;;;;;21.07;8.67;;;;;;;;;;5036121;28;20172;-68
2023/04/25 04:36:10;;;;;;;24.17;7.87;;;;;;;;;;5035670;28;20270;-68
2023/04/25 04:38:36;;;;;;;25.00;8.27;;;;;;;;;;5035761;28;20669;-68
2023/04/25 04:41:03;;;;;;;18.73;8.33;;;;;;;;;;5018236;28;20179;-68
2023/04/25 04:43:29;;;;;;;19.87;9.40;;;;;;;;;;5035952;28;20262;-68
2023/04/25 04:45:58;;;;;;;22.97;7.97;;;;;;;;;;5018394;28;20183;-68
2023/04/25 04:48:24;;;;;;;22.57;8.07;;;;;;;;;;5036744;28;20267;-68
2023/04/25 04:50:50;;;;;;;27.80;8.83;;;;;;;;;;5035674;28;20206;-68
2023/04/25 04:53:16;;;;;;;24.23;8.50;;;;;;;;;;5018018;28;20611;-68
2023/04/25 04:55:42;;;;;;;26.13;9.80;;;;;;;;;;5035865;28;20183;-68
2023/04/25 04:58:08;;;;;;;24.13;9.43;;;;;;;;;;5035906;28;20230;-69
2023/04/25 05:00:34;;;;;;;21.43;8.57;;;;;;;;;;5018207;28;20183;-68
2023/04/25 05:03:01;;;;;;;24.07;8.53;;;;;;;;;;5018083;28;20191;-69
2023/04/25 05:05:27;;;;;;;25.07;8.87;;;;;;;;;;5017651;28;20187;-69
2023/04/25 05:07:53;;;;;;;25.97;8.80;;;;;;;;;;5017622;28;20256;-68
2023/04/25 05:10:20;;;;;;;22.53;8.73;;;;;;;;;;5035157;28;20285;-68
2023/04/25 05:12:46;;;;;;;21.43;9.27;;;;;;;;;;5017566;28;20236;-68
2023/04/25 05:15:12;;;;;;;22.43;9.07;;;;;;;;;;5017493;28;20691;-68
2023/04/25 05:17:38;;;;;;;19.40;8.33;;;;;;;;;;5035429;28;20630;-68
2023/04/25 05:20:05;;;;;;;24.37;8.87;;;;;;;;;;5035014;28;20237;-67
2023/04/25 05:22:31;;;;;;;19.07;8.13;;;;;;;;;;5034995;28;20190;-67
2023/04/25 05:24:57;;;;;;;22.23;9.10;;;;;;;;;;5017192;28;20190;-67
2023/04/25 05:27:24;;;;;;;15.43;7.70;;;;;;;;;;5017149;28;20179;-67
2023/04/25 05:29:50;;;;;;;22.00;8.20;;;;;;;;;;5034684;28;20238;-69
2023/04/25 05:32:16;;;;;;;19.47;7.47;;;;;;;;;;5034827;28;20179;-69
2023/04/25 05:34:42;;;;;;;19.73;7.37;;;;;;;;;;5034995;28;20250;-68
2023/04/25 05:37:09;;;;;;;19.03;7.43;;;;;;;;;;5034664;28;20554;-68
2023/04/25 05:39:35;;;;;;;15.73;7.00;;;;;;;;;;5034571;28;20251;-68
2023/04/25 05:42:01;;;;;;;21.83;7.37;;;;;;;;;;5035311;28;20198;-68
2023/04/25 05:44:27;;;;;;;16.27;6.97;;;;;;;;;;5034613;28;20553;-68
2023/04/25 05:46:53;;;;;;;25.30;7.70;;;;;;;;;;5016811;28;20191;-69
2023/04/25 05:49:19;;;;;;;15.60;6.93;;;;;;;;;;5034367;28;20687;-69
2023/04/25 05:51:45;;;;;;;21.97;7.90;;;;;;;;;;5016789;28;20270;-70
2023/04/25 05:54:11;;;;;;;15.87;7.50;;;;;;;;;;5016642;28;20222;-70
2023/04/25 05:56:37;;;;;;;17.87;7.33;;;;;;;;;;5016612;28;20179;-69
2023/04/25 05:59:03;;;;;;;19.67;7.10;;;;;;;;;;5016459;28;20273;-69
2023/04/25 06:01:29;;;;;;;19.13;7.47;;;;;;;;;;5034221;28;20202;-70
2023/04/25 06:03:55;;;;;;;24.80;8.37;;;;;;;;;;5034179;28;20211;-70
2023/04/25 06:06:21;;;;;;;15.60;6.90;;;;;;;;;;5016418;28;20687;-69
2023/04/25 06:08:47;;;;;;;14.83;6.30;;;;;;;;;;5016416;28;20722;-69
2023/04/25 06:11:13;;;;;;;20.30;6.60;;;;;;;;;;5016272;28;20214;-70
2023/04/25 06:13:39;;;;;;;16.23;6.40;;;;;;;;;;5016406;28;20177;-69
2023/04/25 06:16:05;;;;;;;16.13;6.03;;;;;;;;;;5016374;28;20179;-69
2023/04/25 06:18:31;;;;;;;12.97;6.43;;;;;;;;;;5033917;28;20606;-68
2023/04/25 06:20:57;;;;;;;13.00;5.80;;;;;;;;;;5016104;28;20190;-68
2023/04/25 06:23:23;;;;;;;14.03;5.43;;;;;;;;;;5016035;28;20282;-68
2023/04/25 06:25:49;;;;;;;17.77;6.40;;;;;;;;;;5034032;28;20183;-68
2023/04/25 06:28:15;;;;;;;18.97;5.03;;;;;;;;;;5015953;28;20560;-67
2023/04/25 06:30:41;;;;;;;20.40;5.40;;;;;;;;;;5016003;28;20198;-69
2023/04/25 06:33:08;;;;;;;12.80;4.97;;;;;;;;;;5034177;28;20182;-68
2023/04/25 06:35:34;;;;;;;14.50;5.40;;;;;;;;;;5015837;28;20261;-68
2023/04/25 06:38:00;;;;;;;15.27;4.73;;;;;;;;;;5015777;28;20232;-68
2023/04/25 06:40:26;;;;;;;18.17;5.57;;;;;;;;;;5033427;28;20202;-68
2023/04/25 06:42:52;;;;;;;19.03;5.40;;;;;;;;;;5015511;28;20278;-68
2023/04/25 06:45:18;;;;;;;15.07;5.30;;;;;;;;;;5033347;28;20206;-68
2023/04/25 06:47:44;;;;;;;17.37;5.50;;;;;;;;;;5015733;28;20660;-68
2023/04/25 06:50:10;;;;;;;15.07;4.90;;;;;;;;;;5033371;28;20199;-68
2023/04/25 06:52:36;;;;;;;13.03;5.10;;;;;;;;;;5033633;28;20203;-68
2023/04/25 06:55:03;;;;;;;15.57;5.67;;;;;;;;;;5033477;28;20179;-68
2023/04/25 06:57:29;;;;;;;18.57;5.70;;;;;;;;;;5015758;28;20228;-68
2023/04/25 06:59:55;;;;;;;20.70;5.87;;;;;;;;;;5033076;28;20200;-68
2023/04/25 07:02:22;;;;;;;18.70;5.87;;;;;;;;;;5033343;28;20190;-68
2023/04/25 07:04:48;;;;;;;13.27;5.83;;;;;;;;;;5033575;28;20257;-68
2023/04/25 07:07:14;;;;;;;15.20;5.53;;;;;;;;;;5015439;28;20304;-68
2023/04/25 07:09:40;;;;;;;17.57;5.43;;;;;;;;;;5033033;28;20207;-68
2023/04/25 07:12:06;;;;;;;13.37;5.53;;;;;;;;;;5015516;28;20182;-68
2023/04/25 07:14:32;;;;;;;14.30;5.03;;;;;;;;;;5033292;28;20598;-68
2023/04/25 07:16:58;;;;;;;18.33;5.20;;;;;;;;;;5015495;28;20186;-68
2023/04/25 07:19:26;;;;;;;18.10;4.73;;;;;;;;;;5015604;28;20195;-69
2023/04/25 07:21:52;;;;;;;14.47;5.03;;;;;;;;;;5033885;28;20202;-68
2023/04/25 07:24:18;;;;;;;19.43;5.30;;;;;;;;;;5034428;28;20185;-68
2023/04/25 07:26:44;;;;;;;10.40;5.37;;;;;;;;;;5015949;28;20171;-68
2023/04/25 07:29:10;;;;;;;13.87;5.50;;;;;;;;;;5033390;28;20722;-67
2023/04/25 07:31:36;;;;;;;12.23;4.77;;;;;;;;;;5033334;28;20207;-68
2023/04/25 07:34:02;;;;;;;14.60;5.30;;;;;;;;;;5032873;28;20709;-69
2023/04/25 07:36:28;;;;;;;14.37;5.23;;;;;;;;;;5015231;28;20187;-68
2023/04/25 07:38:54;;;;;;;19.63;5.37;;;;;;;;;;5033099;28;20260;-69
2023/04/25 07:41:21;;;;;;;14.90;4.77;;;;;;;;;;5015662;28;20194;-68
2023/04/25 07:43:47;;;;;;;18.20;6.03;;;;;;;;;;5032749;28;20183;-69
2023/04/25 07:46:13;;;;;;;14.30;4.97;;;;;;;;;;5015182;28;20209;-68
2023/04/25 07:48:39;;;;;;;14.30;4.50;;;;;;;;;;5033006;28;20234;-68
2023/04/25 07:51:07;;;;;;;17.53;4.60;;;;;;;;;;5032683;28;20707;-68
2023/04/25 07:53:34;;;;;;;13.73;5.00;;;;;;;;;;5033438;28;20168;-69
2023/04/25 07:56:00;;;;;;;16.77;5.07;;;;;;;;;;5015060;28;20171;-69
2023/04/25 07:58:26;;;;;;;8.73;2.97;;;;;;;;;;5032708;28;20190;-69
2023/04/25 08:00:52;;;;;;;10.43;4.37;;;;;;;;;;5032661;28;20178;-68
2023/04/25 08:03:18;;;;;;;12.97;3.73;;;;;;;;;;5014851;28;20232;-68
2023/04/25 08:05:45;;;;;;;14.97;4.80;;;;;;;;;;5032708;28;20187;-68
2023/04/25 08:08:11;;;;;;;14.23;3.80;;;;;;;;;;5032699;28;20209;-69
2023/04/25 08:10:37;;;;;;;9.33;3.70;;;;;;;;;;5034204;28;20202;-67
2023/04/25 08:13:03;;;;;;;11.87;4.13;;;;;;;;;;5018558;28;20179;-70
2023/04/25 08:15:29;;;;;;;8.63;3.40;;;;;;;;;;5036304;28;20182;-68
2023/04/25 08:17:55;;;;;;;10.10;3.83;;;;;;;;;;5018487;28;20189;-68
2023/04/25 08:20:21;;;;;;;11.97;3.70;;;;;;;;;;5018372;28;20759;-67
2023/04/25 08:22:48;;;;;;;15.40;3.90;;;;;;;;;;5018414;28;20262;-68
2023/04/25 08:25:14;;;;;;;11.37;3.63;;;;;;;;;;5018312;28;20609;-68
2023/04/25 08:27:40;;;;;;;15.40;3.77;;;;;;;;;;5018205;28;20193;-67
2023/04/25 08:30:10;;;;;;;12.67;3.33;;;;;;;;;;5018239;28;20207;-69
2023/04/25 08:32:38;;;;;;;10.53;3.57;;;;;;;;;;5036253;28;20176;-68
2023/04/25 08:35:04;;;;;;;8.97;3.00;;;;;;;;;;5018681;28;20186;-68
2023/04/25 08:37:30;;;;;;;14.27;3.73;;;;;;;;;;5036386;28;20179;-68
2023/04/25 08:39:56;;;;;;;8.33;3.13;;;;;;;;;;5035998;28;20210;-68
2023/04/25 08:42:22;;;;;;;10.57;3.20;;;;;;;;;;5036121;28;20559;-68
2023/04/25 08:44:49;;;;;;;13.37;3.43;;;;;;;;;;5035779;28;20713;-68
2023/04/25 08:47:15;;;;;;;11.47;3.60;;;;;;;;;;5035594;28;20298;-68
2023/04/25 08:49:44;;;;;;;12.00;3.60;;;;;;;;;;5035598;28;20238;-68
2023/04/25 08:52:10;;;;;;;15.93;3.47;;;;;;;;;;5035867;28;20175;-68
2023/04/25 08:54:37;;;;;;;14.73;3.80;;;;;;;;;;5017715;28;20653;-68
2023/04/25 08:57:03;;;;;;;10.27;3.47;;;;;;;;;;5035643;28;20646;-68
2023/04/25 08:59:31;;;;;;;12.73;3.37;;;;;;;;;;5035559;28;20195;-67
2023/04/25 09:01:57;;;;;;;11.87;3.07;;;;;;;;;;5017686;28;20711;-68
2023/04/25 09:04:23;;;;;;;5.57;2.47;;;;;;;;;;5035327;28;20657;-68
2023/04/25 09:06:49;;;;;;;7.37;2.27;;;;;;;;;;5017577;28;20181;-67
2023/04/25 09:09:15;;;;;;;10.57;2.80;;;;;;;;;;5017493;28;20195;-68
2023/04/25 09:11:41;;;;;;;8.70;2.50;;;;;;;;;;5017445;28;20215;-68
2023/04/25 09:14:14;;;;;;;9.40;2.73;;;;;;;;;;5017564;28;20175;-66
2023/04/25 09:16:56;;;;;;;13.00;3.37;;;;;;;;;;5017374;28;20179;-67
2023/04/25 09:19:31;;;;;;;7.90;2.93;;;;;;;;;;5017207;28;20195;-67
2023/04/25 09:21:58;;;;;;;8.30;2.60;;;;;;;;;;5016184;28;20704;-67
2023/04/25 09:24:38;;;;;;;9.87;2.80;;;;;;;;;;5017343;28;20595;-67
2023/04/25 09:27:05;;;;;;;7.47;2.80;;;;;;;;;;5017246;28;20225;-67
2023/04/25 09:29:31;;;;;;;11.63;2.83;;;;;;;;;;5017147;28;20580;-68
2023/04/25 09:32:15;;;;;;;5.87;2.53;;;;;;;;;;5035380;28;20179;-68
2023/04/25 09:34:50;;;;;;;6.47;2.60;;;;;;;;;;5034717;28;20179;-68
2023/04/25 09:37:34;;;;;;;6.03;2.60;;;;;;;;;;5035025;28;20165;-68
2023/04/25 09:40:05;;;;;;;8.23;2.50;;;;;;;;;;5016872;28;20330;-68
2023/04/25 09:42:31;;;;;;;10.47;2.93;;;;;;;;;;5016826;28;20182;-68
2023/04/25 09:44:58;;;;;;;6.27;2.50;;;;;;;;;;5034567;28;20183;-68
2023/04/25 09:47:28;;;;;;;7.30;2.53;;;;;;;;;;5016763;28;20186;-68
2023/04/25 09:49:58;;;;;;;8.90;2.57;;;;;;;;;;5016647;28;20218;-69
2023/04/25 09:52:25;;;;;;;9.90;2.47;;;;;;;;;;5034428;28;20179;-68
2023/04/25 09:54:51;;;;;;;9.20;2.60;;;;;;;;;;5034205;28;20258;-68
2023/04/25 09:57:24;;;;;;;5.93;2.23;;;;;;;;;;5034581;28;20175;-68
2023/04/25 09:59:52;;;;;;;4.57;2.27;;;;;;;;;;5016551;28;20203;-68
2023/04/25 10:02:20;;;;;;;7.87;2.40;;;;;;;;;;5034178;28;20248;-68
2023/04/25 10:04:48;;;;;;;8.10;2.50;;;;;;;;;;5034222;28;20175;-68
2023/04/25 10:07:14;;;;;;;10.10;2.23;;;;;;;;;;5016524;28;20257;-68
2023/04/25 10:09:41;;;;;;;3.87;1.97;;;;;;;;;;5016129;28;20205;-68
2023/04/25 10:12:08;;;;;;;7.80;2.27;;;;;;;;;;5034013;28;20175;-69
2023/04/25 10:14:34;;;;;;;5.67;2.13;;;;;;;;;;5033952;28;20179;-69
2023/04/25 10:17:01;;;;;;;4.53;2.20;;;;;;;;;;5033936;28;20233;-68
2023/04/25 10:19:27;;;;;;;6.43;2.13;;;;;;;;;;5034277;28;20214;-68
2023/04/25 10:22:17;;;;;;;6.60;3.00;;;;;;;;;;5034444;28;20638;-68
2023/04/25 10:24:43;;;;;;;6.17;2.53;;;;;;;;;;5023455;28;20286;-68
2023/04/25 10:27:09;;;;;;;9.20;2.73;;;;;;;;;;5034013;28;20637;-68
2023/04/25 10:29:36;;;;;;;5.37;2.13;;;;;;;;;;5033816;28;20222;-68
2023/04/25 10:32:02;;;;;;;8.30;2.50;;;;;;;;;;5016019;28;20217;-69
2023/04/25 10:34:46;;;;;;;7.57;2.47;;;;;;;;;;5033295;28;20210;-68
2023/04/25 10:37:13;;;;;;;4.07;2.57;;;;;;;;;;5033669;28;20171;-68
2023/04/25 10:39:43;;;;;;;5.43;2.30;;;;;;;;;;5015908;28;20215;-68
2023/04/25 10:42:09;;;;;;;3.13;1.87;;;;;;;;;;5033729;28;20171;-68
2023/04/25 10:44:37;;;;;;;6.23;2.27;;;;;;;;;;5016115;28;20217;-68
2023/04/25 10:47:05;;;;;;;5.53;2.50;;;;;;;;;;5033523;28;20178;-68
2023/04/25 10:49:35;;;;;;;8.30;2.07;;;;;;;;;;5015527;28;20260;-68
2023/04/25 10:52:16;;;;;;;7.40;2.47;;;;;;;;;;5015620;28;20657;-68
2023/04/25 10:54:49;;;;;;;7.17;2.20;;;;;;;;;;5033318;28;20175;-68
2023/04/25 10:57:35;;;;;;;4.87;2.30;;;;;;;;;;5033588;28;20600;-68
2023/04/25 11:00:04;;;;;;;6.87;2.67;;;;;;;;;;5033066;28;20685;-68
2023/04/25 11:02:31;;;;;;;4.40;2.17;;;;;;;;;;5033215;28;20175;-68
2023/04/25 11:04:57;;;;;;;4.70;2.00;;;;;;;;;;5033116;28;20254;-68
2023/04/25 11:07:41;;;;;;;8.60;1.97;;;;;;;;;;5033038;28;20186;-68
2023/04/25 11:10:07;;;;;;;8.57;2.70;;;;;;;;;;5015167;28;20218;-68
2023/04/25 11:12:33;;;;;;;5.77;2.27;;;;;;;;;;5032946;28;20226;-69
2023/04/25 11:15:01;;;;;;;3.73;1.93;;;;;;;;;;5016037;28;20214;-67
2023/04/25 11:17:27;;;;;;;6.07;2.20;;;;;;;;;;5015282;28;20182;-68
2023/04/25 11:19:55;;;;;;;7.30;2.30;;;;;;;;;;5015099;28;20226;-68
2023/04/25 11:22:21;;;;;;;6.90;2.20;;;;;;;;;;5015342;28;20210;-68
2023/04/25 11:24:47;;;;;;;7.33;2.87;;;;;;;;;;5015718;28;20321;-67
2023/04/25 11:27:13;;;;;;;6.17;2.63;;;;;;;;;;5033151;28;20252;-67
2023/04/25 11:29:39;;;;;;;6.70;2.93;;;;;;;;;;5033576;28;20203;-69
2023/04/25 11:32:05;;;;;;;7.17;2.83;;;;;;;;;;5015377;28;20175;-68
2023/04/25 11:34:32;;;;;;;6.60;3.00;;;;;;;;;;5015368;28;20270;-68
2023/04/25 11:36:59;;;;;;;4.27;2.20;;;;;;;;;;5033470;28;20171;-68
2023/04/25 11:39:25;;;;;;;7.70;2.60;;;;;;;;;;5033009;28;20203;-68
2023/04/25 11:41:51;;;;;;;8.03;2.53;;;;;;;;;;5015213;28;20187;-67
2023/04/25 11:44:18;;;;;;;9.80;2.67;;;;;;;;;;5033044;28;20258;-68
2023/04/25 11:46:44;;;;;;;9.13;2.60;;;;;;;;;;5018304;28;20198;-68
2023/04/25 11:49:11;;;;;;;7.30;3.10;;;;;;;;;;5019116;28;20278;-68
2023/04/25 11:51:44;;;;;;;6.90;2.53;;;;;;;;;;5047570;22;20231;-70
2023/04/25 11:54:10;;;;;;;8.57;3.17;;;;;;;;;;4999306;28;20270;-70
2023/04/25 11:56:36;;;;;;;8.83;3.03;;;;;;;;;;5017440;28;20258;-70
2023/04/25 11:59:04;;;;;;;9.50;3.10;;;;;;;;;;5000277;28;20267;-71
2023/04/25 12:01:30;;;;;;;8.47;3.33;;;;;;;;;;5017068;28;20196;-69
2023/04/25 12:03:57;;;;;;;7.47;2.87;;;;;;;;;;5016940;28;20599;-68
2023/04/25 12:06:29;;;;;;;9.27;3.67;;;;;;;;;;5017122;28;20179;-70
2023/04/25 12:09:01;;;;;;;10.87;3.43;;;;;;;;;;4999365;28;20278;-69
2023/04/25 12:11:27;;;;;;;7.03;3.17;;;;;;;;;;4999219;28;20269;-69
2023/04/25 12:13:53;;;;;;;6.30;3.03;;;;;;;;;;5017059;28;20184;-68
2023/04/25 12:16:19;;;;;;;14.57;3.93;;;;;;;;;;4999363;28;20176;-69
2023/04/25 12:18:45;;;;;;;8.67;3.40;;;;;;;;;;5016855;28;20237;-69
2023/04/25 12:21:11;;;;;;;6.00;2.90;;;;;;;;;;5017200;28;20210;-69
2023/04/25 12:23:41;;;;;;;7.03;2.93;;;;;;;;;;5000745;28;20188;-68
2023/04/25 12:26:07;;;;;;;7.97;3.10;;;;;;;;;;4999394;28;20191;-69
2023/04/25 12:28:34;;;;;;;5.10;2.57;;;;;;;;;;5016803;28;20247;-69
2023/04/25 12:31:00;;;;;;;7.57;2.60;;;;;;;;;;4998849;28;20235;-68
2023/04/25 12:33:27;;;;;;;7.90;2.67;;;;;;;;;;5016832;28;20172;-69
2023/04/25 12:35:53;;;;;;;6.50;2.83;;;;;;;;;;5016528;28;20172;-69
2023/04/25 12:38:27;;;;;;;7.60;2.70;;;;;;;;;;4999104;28;20240;-68
2023/04/25 12:40:53;;;;;;;7.57;3.00;;;;;;;;;;5016695;28;20545;-69
2023/04/25 12:43:19;;;;;;;8.07;2.20;;;;;;;;;;4998784;28;20188;-68
2023/04/25 12:45:48;;;;;;;7.17;3.47;;;;;;;;;;4998554;28;20180;-68
2023/04/25 12:48:14;;;;;;;8.10;2.50;;;;;;;;;;5016365;28;20176;-68
2023/04/25 12:50:41;;;;;;;7.13;2.60;;;;;;;;;;5016228;28;20215;-68
2023/04/25 12:53:06;;;;;;;6.07;2.27;;;;;;;;;;5016418;28;20172;-67
2023/04/25 12:55:32;;;;;;;8.47;2.67;;;;;;;;;;5016601;28;20188;-68
2023/04/25 12:57:58;;;;;;;7.07;2.10;;;;;;;;;;5015904;28;20179;-69
2023/04/25 13:00:24;;;;;;;7.00;2.60;;;;;;;;;;5016166;28;20207;-68
2023/04/25 13:02:50;;;;;;;5.67;2.47;;;;;;;;;;5015928;28;20233;-69
2023/04/25 13:05:16;;;;;;;9.57;2.80;;;;;;;;;;4998241;28;20191;-68
2023/04/25 13:07:42;;;;;;;7.20;1.97;;;;;;;;;;4998335;28;20278;-68
2023/04/25 13:10:08;;;;;;;7.47;2.00;;;;;;;;;;5016081;28;20619;-67
2023/04/25 13:12:34;;;;;;;6.80;2.13;;;;;;;;;;5016094;28;20260;-68
2023/04/25 13:15:00;;;;;;;5.87;2.30;;;;;;;;;;5016111;28;20180;-68
2023/04/25 13:17:26;;;;;;;8.67;2.30;;;;;;;;;;5015917;28;20256;-68
2023/04/25 13:19:52;;;;;;;5.27;2.10;;;;;;;;;;4997910;28;20191;-70
2023/04/25 13:22:20;;;;;;;7.13;2.20;;;;;;;;;;5016044;28;20643;-67
2023/04/25 13:24:46;;;;;;;9.13;2.53;;;;;;;;;;5015595;28;20203;-69
2023/04/25 13:27:12;;;;;;;5.73;2.53;;;;;;;;;;5015542;28;20180;-69
2023/04/25 13:29:40;;;;;;;6.60;2.30;;;;;;;;;;5015648;28;20180;-68
2023/04/25 13:32:06;;;;;;;6.10;2.70;;;;;;;;;;5015480;28;20621;-68
2023/04/25 13:34:32;;;;;;;4.80;2.10;;;;;;;;;;5015883;28;20235;-69
2023/04/25 13:36:58;;;;;;;9.73;2.90;;;;;;;;;;5015472;28;20662;-68
2023/04/25 13:39:24;;;;;;;9.00;2.30;;;;;;;;;;5015778;28;20207;-68
2023/04/25 13:41:50;;;;;;;8.90;2.80;;;;;;;;;;4997979;28;20204;-68
2023/04/25 13:44:16;;;;;;;6.33;2.40;;;;;;;;;;4998325;28;20183;-68
2023/04/25 13:46:42;;;;;;;3.93;2.07;;;;;;;;;;5015262;28;20180;-68
2023/04/25 13:49:08;;;;;;;4.43;2.50;;;;;;;;;;5015230;28;20208;-67
2023/04/25 13:51:34;;;;;;;6.47;2.43;;;;;;;;;;4997161;28;20261;-67
2023/04/25 13:54:00;;;;;;;3.77;1.97;;;;;;;;;;4997700;28;20179;-68
2023/04/25 13:56:26;;;;;;;6.90;2.00;;;;;;;;;;5015167;28;20172;-68
2023/04/25 13:58:52;;;;;;;4.43;2.40;;;;;;;;;;5014990;28;20199;-68
2023/04/25 14:01:20;;;;;;;6.50;2.27;;;;;;;;;;4997140;28;20234;-68
2023/04/25 14:03:46;;;;;;;8.37;2.80;;;;;;;;;;4997144;28;20180;-68
2023/04/25 14:06:13;;;;;;;6.93;2.70;;;;;;;;;;5014906;28;20556;-67
2023/04/25 14:08:39;;;;;;;4.23;2.13;;;;;;;;;;5014504;28;20171;-68
2023/04/25 14:11:05;;;;;;;6.53;2.20;;;;;;;;;;5014641;28;20290;-67
2023/04/25 14:13:31;;;;;;;5.63;2.27;;;;;;;;;;5014993;28;20176;-67
2023/04/25 14:15:57;;;;;;;4.20;1.73;;;;;;;;;;4997305;28;20243;-67
2023/04/25 14:18:23;;;;;;;3.77;2.13;;;;;;;;;;5014653;28;20182;-67
2023/04/25 14:20:49;;;;;;;4.37;2.00;;;;;;;;;;5014534;28;20203;-66
2023/04/25 14:23:15;;;;;;;8.10;2.23;;;;;;;;;;5014564;28;20633;-66
2023/04/25 14:25:42;;;;;;;4.20;2.43;;;;;;;;;;5014864;28;20653;-66
2023/04/25 14:28:08;;;;;;;3.93;2.20;;;;;;;;;;4997270;28;20558;-67
2023/04/25 14:30:34;;;;;;;5.83;2.13;;;;;;;;;;5014787;28;20212;-67
2023/04/25 14:33:00;;;;;;;5.57;2.23;;;;;;;;;;5016410;28;20274;-67